createdAt,value
2018-03-06T00:00:04.697Z,975.4
2018-03-06T00:00:25.210Z,975.4
2018-03-06T00:00:45.725Z,975.4
2018-03-06T00:01:06.172Z,975.5
2018-03-06T00:01:26.552Z,975.5
2018-03-06T00:01:47.714Z,975.4
2018-03-06T00:02:08.070Z,975.4
2018-03-06T00:02:28.465Z,975.4
2018-03-06T00:02:48.820Z,975.4
2018-03-06T00:03:09.238Z,975.4
2018-03-06T00:03:29.535Z,975.4
2018-03-06T00:03:49.918Z,975.4
2018-03-06T00:04:10.385Z,975.4
2018-03-06T00:04:30.848Z,975.4
2018-03-06T00:04:51.225Z,975.4
2018-03-06T00:05:11.609Z,975.3
2018-03-06T00:05:32.020Z,975.4
2018-03-06T00:05:53.521Z,975.4
2018-03-06T00:06:14.075Z,975.4
2018-03-06T00:06:34.489Z,975.4
2018-03-06T00:06:54.906Z,975.4
2018-03-06T00:07:15.750Z,975.4
2018-03-06T00:07:36.106Z,975.3
2018-03-06T00:07:56.466Z,975.4
2018-03-06T00:08:16.815Z,975.3
2018-03-06T00:08:37.186Z,975.3
2018-03-06T00:08:57.598Z,975.4
2018-03-06T00:09:18.176Z,975.4
2018-03-06T00:09:38.708Z,975.4
2018-03-06T00:09:59.070Z,975.4
2018-03-06T00:10:19.469Z,975.3
2018-03-06T00:10:39.794Z,975.3
2018-03-06T00:11:00.303Z,975.3
2018-03-06T00:11:20.674Z,975.3
2018-03-06T00:11:41.047Z,975.4
2018-03-06T00:12:01.400Z,975.4
2018-03-06T00:12:21.737Z,975.4
2018-03-06T00:12:42.095Z,975.4
2018-03-06T00:13:02.468Z,975.4
2018-03-06T00:13:23.068Z,975.4
2018-03-06T00:13:43.683Z,975.4
2018-03-06T00:14:04.157Z,975.4
2018-03-06T00:14:24.600Z,975.3
2018-03-06T00:14:44.980Z,975.3
2018-03-06T00:15:05.405Z,975.4
2018-03-06T00:15:26.655Z,975.3
2018-03-06T00:15:47.026Z,975.3
2018-03-06T00:16:07.349Z,975.4
2018-03-06T00:16:27.839Z,975.3
2018-03-06T00:16:48.319Z,975.4
2018-03-06T00:17:08.669Z,975.4
2018-03-06T00:17:29.035Z,975.4
2018-03-06T00:17:49.510Z,975.4
2018-03-06T00:18:10.050Z,975.4
2018-03-06T00:18:30.429Z,975.3
2018-03-06T00:18:50.754Z,975.4
2018-03-06T00:19:11.162Z,975.4
2018-03-06T00:19:31.511Z,975.4
2018-03-06T00:19:51.886Z,975.4
2018-03-06T00:20:12.299Z,975.4
2018-03-06T00:20:33.578Z,975.4
2018-03-06T00:20:53.963Z,975.4
2018-03-06T00:21:14.344Z,975.4
2018-03-06T00:21:34.759Z,975.4
2018-03-06T00:21:55.154Z,975.4
2018-03-06T00:22:15.474Z,975.4
2018-03-06T00:22:36.086Z,975.4
2018-03-06T00:22:56.434Z,975.4
2018-03-06T00:23:16.787Z,975.5
2018-03-06T00:23:37.218Z,975.4
2018-03-06T00:23:57.720Z,975.4
2018-03-06T00:24:18.302Z,975.4
2018-03-06T00:24:38.674Z,975.4
2018-03-06T00:24:59.141Z,975.4
2018-03-06T00:25:19.506Z,975.4
2018-03-06T00:25:39.858Z,975.3
2018-03-06T00:26:00.214Z,975.4
2018-03-06T00:26:21.639Z,975.4
2018-03-06T00:26:42.015Z,975.4
2018-03-06T00:27:02.349Z,975.4
2018-03-06T00:27:22.668Z,975.4
2018-03-06T00:27:43.862Z,975.4
2018-03-06T00:28:04.286Z,975.4
2018-03-06T00:28:24.708Z,975.4
2018-03-06T00:28:45.139Z,975.4
2018-03-06T00:29:05.526Z,975.4
2018-03-06T00:29:25.922Z,975.4
2018-03-06T00:29:46.428Z,975.4
2018-03-06T00:30:06.812Z,975.4
2018-03-06T00:30:28.014Z,975.4
2018-03-06T00:30:48.361Z,975.4
2018-03-06T00:31:08.713Z,975.3
2018-03-06T00:31:29.090Z,975.3
2018-03-06T00:31:49.452Z,975.4
2018-03-06T00:32:09.775Z,975.4
2018-03-06T00:32:30.063Z,975.3
2018-03-06T00:32:50.386Z,975.3
2018-03-06T00:33:10.683Z,975.3
2018-03-06T00:33:30.985Z,975.3
2018-03-06T00:33:51.379Z,975.3
2018-03-06T00:34:11.719Z,975.3
2018-03-06T00:34:33.404Z,975.3
2018-03-06T00:34:53.841Z,975.3
2018-03-06T00:35:14.205Z,975.3
2018-03-06T00:35:34.577Z,975.3
2018-03-06T00:35:54.947Z,975.3
2018-03-06T00:36:15.311Z,975.2
2018-03-06T00:36:35.712Z,975.2
2018-03-06T00:36:55.816Z,975.2
2018-03-06T00:37:16.098Z,975.2
2018-03-06T00:37:36.493Z,975.3
2018-03-06T00:37:56.848Z,975.2
2018-03-06T00:38:17.188Z,975.3
2018-03-06T00:38:37.496Z,975.2
2018-03-06T00:38:57.819Z,975.3
2018-03-06T00:39:18.103Z,975.2
2018-03-06T00:39:38.389Z,975.2
2018-03-06T00:39:58.775Z,975.2
2018-03-06T00:40:19.166Z,975.2
2018-03-06T00:40:39.620Z,975.2
2018-03-06T00:40:59.974Z,975.2
2018-03-06T00:41:20.290Z,975.2
2018-03-06T00:41:40.615Z,975.2
2018-03-06T00:42:01.030Z,975.2
2018-03-06T00:42:21.384Z,975.2
2018-03-06T00:42:41.752Z,975.2
2018-03-06T00:43:02.141Z,975.2
2018-03-06T00:43:22.530Z,975.2
2018-03-06T00:43:42.907Z,975.2
2018-03-06T00:44:04.047Z,975.2
2018-03-06T00:44:24.436Z,975.2
2018-03-06T00:44:44.810Z,975.2
2018-03-06T00:45:05.216Z,975.2
2018-03-06T00:45:25.538Z,975.2
2018-03-06T00:45:46.587Z,975.2
2018-03-06T00:46:07.916Z,975.2
2018-03-06T00:46:28.638Z,975.2
2018-03-06T00:46:48.936Z,975.2
2018-03-06T00:47:09.297Z,975.2
2018-03-06T00:47:29.638Z,975.2
2018-03-06T00:47:49.995Z,975.2
2018-03-06T00:48:10.473Z,975.2
2018-03-06T00:48:30.843Z,975.2
2018-03-06T00:48:51.960Z,975.3
2018-03-06T00:49:12.271Z,975.2
2018-03-06T00:49:32.598Z,975.3
2018-03-06T00:49:52.961Z,975.2
2018-03-06T00:50:13.380Z,975.2
2018-03-06T00:50:33.702Z,975.2
2018-03-06T00:50:54.106Z,975.2
2018-03-06T00:51:14.427Z,975.2
2018-03-06T00:51:35.931Z,975.2
2018-03-06T00:51:56.355Z,975.2
2018-03-06T00:52:16.656Z,975.2
2018-03-06T00:52:36.988Z,975.2
2018-03-06T00:52:57.264Z,975.2
2018-03-06T00:53:17.606Z,975.2
2018-03-06T00:53:37.981Z,975.2
2018-03-06T00:53:58.278Z,975.2
2018-03-06T00:54:18.579Z,975.2
2018-03-06T00:54:38.922Z,975.2
2018-03-06T00:54:59.250Z,975.2
2018-03-06T00:55:19.561Z,975.2
2018-03-06T00:55:40.213Z,975.2
2018-03-06T00:56:00.475Z,975.2
2018-03-06T00:56:20.808Z,975.2
2018-03-06T00:56:41.182Z,975.2
2018-03-06T00:57:01.534Z,975.1
2018-03-06T00:57:21.843Z,975.2
2018-03-06T00:57:42.249Z,975.2
2018-03-06T00:58:02.658Z,975.2
2018-03-06T00:58:23.070Z,975.1
2018-03-06T00:58:43.779Z,975.2
2018-03-06T00:59:04.179Z,975.2
2018-03-06T00:59:24.571Z,975.1
2018-03-06T00:59:44.939Z,975.1
2018-03-06T01:00:05.304Z,975.1
2018-03-06T01:00:25.650Z,975.1
2018-03-06T01:00:46.038Z,975.1
2018-03-06T01:01:06.374Z,975.1
2018-03-06T01:01:26.719Z,975.1
2018-03-06T01:01:47.102Z,975.1
2018-03-06T01:02:07.500Z,975.1
2018-03-06T01:02:27.983Z,975.1
2018-03-06T01:02:48.392Z,975.1
2018-03-06T01:03:09.672Z,975.1
2018-03-06T01:03:30.056Z,975.1
2018-03-06T01:03:50.435Z,975
2018-03-06T01:04:11.305Z,975.1
2018-03-06T01:04:31.620Z,975
2018-03-06T01:04:52.016Z,975
2018-03-06T01:05:12.432Z,975
2018-03-06T01:05:32.790Z,975
2018-03-06T01:05:53.164Z,975
2018-03-06T01:06:13.516Z,975
2018-03-06T01:06:33.806Z,975
2018-03-06T01:06:54.158Z,975
2018-03-06T01:07:14.511Z,975
2018-03-06T01:07:34.819Z,975
2018-03-06T01:07:55.163Z,975
2018-03-06T01:08:15.495Z,975
2018-03-06T01:08:35.790Z,975
2018-03-06T01:08:56.104Z,975
2018-03-06T01:09:16.502Z,974.9
2018-03-06T01:09:37.571Z,975
2018-03-06T01:09:57.927Z,975
2018-03-06T01:10:18.273Z,974.9
2018-03-06T01:10:38.647Z,975
2018-03-06T01:10:59.940Z,974.9
2018-03-06T01:11:20.934Z,975
2018-03-06T01:11:41.325Z,975
2018-03-06T01:12:01.746Z,974.9
2018-03-06T01:12:22.237Z,975
2018-03-06T01:12:42.577Z,975
2018-03-06T01:13:03.133Z,975
2018-03-06T01:13:23.490Z,974.9
2018-03-06T01:13:44.835Z,974.9
2018-03-06T01:14:05.209Z,974.9
2018-03-06T01:14:25.310Z,974.9
2018-03-06T01:14:45.658Z,975
2018-03-06T01:15:05.961Z,975
2018-03-06T01:15:26.366Z,974.9
2018-03-06T01:15:46.679Z,975
2018-03-06T01:16:07.025Z,975
2018-03-06T01:16:27.363Z,974.9
2018-03-06T01:16:47.747Z,975
2018-03-06T01:17:08.077Z,974.9
2018-03-06T01:17:28.457Z,975
2018-03-06T01:17:48.847Z,974.9
2018-03-06T01:18:09.264Z,974.9
2018-03-06T01:18:29.620Z,974.9
2018-03-06T01:18:49.937Z,974.9
2018-03-06T01:19:10.212Z,974.9
2018-03-06T01:19:30.482Z,975
2018-03-06T01:19:51.013Z,975
2018-03-06T01:20:11.370Z,974.9
2018-03-06T01:20:31.715Z,974.9
2018-03-06T01:20:52.150Z,974.9
2018-03-06T01:21:12.472Z,975
2018-03-06T01:21:32.904Z,974.8
2018-03-06T01:21:53.219Z,974.9
2018-03-06T01:22:13.650Z,974.9
2018-03-06T01:22:34.017Z,974.9
2018-03-06T01:22:54.360Z,974.9
2018-03-06T01:23:14.686Z,974.9
2018-03-06T01:23:35.726Z,974.9
2018-03-06T01:23:56.077Z,974.9
2018-03-06T01:24:16.557Z,974.9
2018-03-06T01:24:36.942Z,974.9
2018-03-06T01:24:58.133Z,974.8
2018-03-06T01:25:18.438Z,974.8
2018-03-06T01:25:38.819Z,974.8
2018-03-06T01:25:59.196Z,974.9
2018-03-06T01:26:19.558Z,974.8
2018-03-06T01:26:39.881Z,974.8
2018-03-06T01:27:00.246Z,974.8
2018-03-06T01:27:20.618Z,974.8
2018-03-06T01:27:42.550Z,974.8
2018-03-06T01:28:02.899Z,974.8
2018-03-06T01:28:23.482Z,974.7
2018-03-06T01:28:44.158Z,974.7
2018-03-06T01:29:04.523Z,974.8
2018-03-06T01:29:24.995Z,974.8
2018-03-06T01:29:45.445Z,974.8
2018-03-06T01:30:05.961Z,974.7
2018-03-06T01:30:26.424Z,974.7
2018-03-06T01:30:46.935Z,974.7
2018-03-06T01:31:07.235Z,974.8
2018-03-06T01:31:27.607Z,974.7
2018-03-06T01:31:47.942Z,974.7
2018-03-06T01:32:08.274Z,974.8
2018-03-06T01:32:28.706Z,974.7
2018-03-06T01:32:49.150Z,974.7
2018-03-06T01:33:09.460Z,974.7
2018-03-06T01:33:30.830Z,974.7
2018-03-06T01:33:51.256Z,974.7
2018-03-06T01:34:11.620Z,974.7
2018-03-06T01:34:32.104Z,974.7
2018-03-06T01:34:52.470Z,974.7
2018-03-06T01:35:12.829Z,974.7
2018-03-06T01:35:33.295Z,974.7
2018-03-06T01:35:53.798Z,974.7
2018-03-06T01:36:14.090Z,974.7
2018-03-06T01:36:34.528Z,974.7
2018-03-06T01:36:54.944Z,974.7
2018-03-06T01:37:15.330Z,974.7
2018-03-06T01:37:36.665Z,974.7
2018-03-06T01:37:56.956Z,974.7
2018-03-06T01:38:17.280Z,974.6
2018-03-06T01:38:37.711Z,974.7
2018-03-06T01:38:58.087Z,974.7
2018-03-06T01:39:19.284Z,974.7
2018-03-06T01:39:39.720Z,974.7
2018-03-06T01:40:00.076Z,974.6
2018-03-06T01:40:20.568Z,974.7
2018-03-06T01:40:41.832Z,974.7
2018-03-06T01:41:02.216Z,974.7
2018-03-06T01:41:22.601Z,974.7
2018-03-06T01:41:43.024Z,974.7
2018-03-06T01:42:03.384Z,974.7
2018-03-06T01:42:23.745Z,974.7
2018-03-06T01:42:44.121Z,974.7
2018-03-06T01:43:04.591Z,974.7
2018-03-06T01:43:26.040Z,974.6
2018-03-06T01:43:46.433Z,974.7
2018-03-06T01:44:06.747Z,974.7
2018-03-06T01:44:27.099Z,974.7
2018-03-06T01:44:47.521Z,974.7
2018-03-06T01:45:08.583Z,974.7
2018-03-06T01:45:28.899Z,974.7
2018-03-06T01:45:49.274Z,974.7
2018-03-06T01:46:09.588Z,974.7
2018-03-06T01:46:29.965Z,974.7
2018-03-06T01:46:50.363Z,974.7
2018-03-06T01:47:10.733Z,974.7
2018-03-06T01:47:31.096Z,974.7
2018-03-06T01:47:51.425Z,974.7
2018-03-06T01:48:11.914Z,974.7
2018-03-06T01:48:32.226Z,974.6
2018-03-06T01:48:52.586Z,974.6
2018-03-06T01:49:13.596Z,974.6
2018-03-06T01:49:33.998Z,974.6
2018-03-06T01:49:54.367Z,974.6
2018-03-06T01:50:14.739Z,974.6
2018-03-06T01:50:36.376Z,974.6
2018-03-06T01:50:56.793Z,974.6
2018-03-06T01:51:17.098Z,974.6
2018-03-06T01:51:37.503Z,974.6
2018-03-06T01:51:57.893Z,974.7
2018-03-06T01:52:18.215Z,974.6
2018-03-06T01:52:38.587Z,974.6
2018-03-06T01:52:58.926Z,974.6
2018-03-06T01:53:19.265Z,974.6
2018-03-06T01:53:39.603Z,974.6
2018-03-06T01:54:00.007Z,974.6
2018-03-06T01:54:20.260Z,974.6
2018-03-06T01:54:40.535Z,974.6
2018-03-06T01:55:00.833Z,974.6
2018-03-06T01:55:21.224Z,974.6
2018-03-06T01:55:41.586Z,974.6
2018-03-06T01:56:02.013Z,974.6
2018-03-06T01:56:22.302Z,974.6
2018-03-06T01:56:42.626Z,974.6
2018-03-06T01:57:03.054Z,974.6
2018-03-06T01:57:23.408Z,974.6
2018-03-06T01:57:43.688Z,974.6
2018-03-06T01:58:04.053Z,974.6
2018-03-06T01:58:24.416Z,974.6
2018-03-06T01:58:44.819Z,974.6
2018-03-06T01:59:05.136Z,974.6
2018-03-06T01:59:26.417Z,974.5
2018-03-06T01:59:46.791Z,974.6
2018-03-06T02:00:07.090Z,974.5
2018-03-06T02:00:27.422Z,974.5
2018-03-06T02:00:48.038Z,974.6
2018-03-06T02:01:08.351Z,974.5
2018-03-06T02:01:28.769Z,974.6
2018-03-06T02:01:49.104Z,974.6
2018-03-06T02:02:09.419Z,974.6
2018-03-06T02:02:29.846Z,974.6
2018-03-06T02:02:50.160Z,974.6
2018-03-06T02:03:10.544Z,974.6
2018-03-06T02:03:30.890Z,974.5
2018-03-06T02:03:51.251Z,974.5
2018-03-06T02:04:11.584Z,974.5
2018-03-06T02:04:31.929Z,974.5
2018-03-06T02:04:52.313Z,974.5
2018-03-06T02:05:12.646Z,974.5
2018-03-06T02:05:32.945Z,974.5
2018-03-06T02:05:53.247Z,974.5
2018-03-06T02:06:13.608Z,974.5
2018-03-06T02:06:34.349Z,974.5
2018-03-06T02:06:54.639Z,974.5
2018-03-06T02:07:15.001Z,974.5
2018-03-06T02:07:35.335Z,974.5
2018-03-06T02:07:55.676Z,974.5
2018-03-06T02:08:15.964Z,974.5
2018-03-06T02:08:36.338Z,974.5
2018-03-06T02:08:56.650Z,974.5
2018-03-06T02:09:17.699Z,974.5
2018-03-06T02:09:38.099Z,974.5
2018-03-06T02:09:58.410Z,974.5
2018-03-06T02:10:18.812Z,974.5
2018-03-06T02:10:39.083Z,974.5
2018-03-06T02:10:59.442Z,974.5
2018-03-06T02:11:19.836Z,974.5
2018-03-06T02:11:41.281Z,974.5
2018-03-06T02:12:01.606Z,974.4
2018-03-06T02:12:22.020Z,974.5
2018-03-06T02:12:42.370Z,974.5
2018-03-06T02:13:02.844Z,974.5
2018-03-06T02:13:23.192Z,974.4
2018-03-06T02:13:43.617Z,974.4
2018-03-06T02:14:03.948Z,974.5
2018-03-06T02:14:24.369Z,974.4
2018-03-06T02:14:44.846Z,974.4
2018-03-06T02:15:05.047Z,974.4
2018-03-06T02:15:25.502Z,974.4
2018-03-06T02:15:45.884Z,974.4
2018-03-06T02:16:06.215Z,974.4
2018-03-06T02:16:26.567Z,974.3
2018-03-06T02:16:46.980Z,974.3
2018-03-06T02:17:07.350Z,974.3
2018-03-06T02:17:27.742Z,974.4
2018-03-06T02:17:48.059Z,974.4
2018-03-06T02:18:08.383Z,974.3
2018-03-06T02:18:28.714Z,974.3
2018-03-06T02:18:49.074Z,974.3
2018-03-06T02:19:09.480Z,974.3
2018-03-06T02:19:29.852Z,974.3
2018-03-06T02:19:50.143Z,974.3
2018-03-06T02:20:10.555Z,974.4
2018-03-06T02:20:30.912Z,974.3
2018-03-06T02:20:51.298Z,974.3
2018-03-06T02:21:12.808Z,974.3
2018-03-06T02:21:33.413Z,974.3
2018-03-06T02:21:53.747Z,974.3
2018-03-06T02:22:14.102Z,974.3
2018-03-06T02:22:35.267Z,974.3
2018-03-06T02:22:55.737Z,974.3
2018-03-06T02:23:16.249Z,974.3
2018-03-06T02:23:36.592Z,974.3
2018-03-06T02:23:56.904Z,974.3
2018-03-06T02:24:17.229Z,974.3
2018-03-06T02:24:37.655Z,974.3
2018-03-06T02:24:57.951Z,974.3
2018-03-06T02:25:19.298Z,974.3
2018-03-06T02:25:39.686Z,974.3
2018-03-06T02:26:00.008Z,974.3
2018-03-06T02:26:20.318Z,974.3
2018-03-06T02:26:40.713Z,974.3
2018-03-06T02:27:02.064Z,974.2
2018-03-06T02:27:22.397Z,974.3
2018-03-06T02:27:42.839Z,974.2
2018-03-06T02:28:03.180Z,974.2
2018-03-06T02:28:23.536Z,974.2
2018-03-06T02:28:43.928Z,974.3
2018-03-06T02:29:04.296Z,974.2
2018-03-06T02:29:25.389Z,974.2
2018-03-06T02:29:45.681Z,974.3
2018-03-06T02:30:06.082Z,974.2
2018-03-06T02:30:26.415Z,974.2
2018-03-06T02:30:46.804Z,974.2
2018-03-06T02:31:07.247Z,974.2
2018-03-06T02:31:27.576Z,974.2
2018-03-06T02:31:47.879Z,974.2
2018-03-06T02:32:08.279Z,974.2
2018-03-06T02:32:28.656Z,974.2
2018-03-06T02:32:49.003Z,974.2
2018-03-06T02:33:09.393Z,974.2
2018-03-06T02:33:29.763Z,974.2
2018-03-06T02:33:50.235Z,974.2
2018-03-06T02:34:10.599Z,974.1
2018-03-06T02:34:30.945Z,974.1
2018-03-06T02:34:51.374Z,974.2
2018-03-06T02:35:12.402Z,974.2
2018-03-06T02:35:32.716Z,974.1
2018-03-06T02:35:53.079Z,974.1
2018-03-06T02:36:13.510Z,974.2
2018-03-06T02:36:33.861Z,974.1
2018-03-06T02:36:54.187Z,974.1
2018-03-06T02:37:14.612Z,974.1
2018-03-06T02:37:34.951Z,974.1
2018-03-06T02:37:55.251Z,974.1
2018-03-06T02:38:15.563Z,974.1
2018-03-06T02:38:35.911Z,974.1
2018-03-06T02:38:56.250Z,974.1
2018-03-06T02:39:16.632Z,974.1
2018-03-06T02:39:37.052Z,974
2018-03-06T02:39:57.477Z,974.1
2018-03-06T02:40:17.751Z,974.1
2018-03-06T02:40:38.049Z,974.1
2018-03-06T02:40:58.416Z,974.1
2018-03-06T02:41:18.828Z,974
2018-03-06T02:41:39.158Z,974
2018-03-06T02:42:00.343Z,974.1
2018-03-06T02:42:21.588Z,974.1
2018-03-06T02:42:41.956Z,974
2018-03-06T02:43:02.284Z,974.1
2018-03-06T02:43:22.603Z,974
2018-03-06T02:43:42.995Z,974
2018-03-06T02:44:03.284Z,974
2018-03-06T02:44:23.635Z,974
2018-03-06T02:44:43.957Z,974
2018-03-06T02:45:05.133Z,974
2018-03-06T02:45:25.513Z,974
2018-03-06T02:45:45.791Z,974
2018-03-06T02:46:06.081Z,974
2018-03-06T02:46:26.447Z,974
2018-03-06T02:46:46.827Z,974
2018-03-06T02:47:07.164Z,974
2018-03-06T02:47:27.522Z,974
2018-03-06T02:47:47.831Z,973.9
2018-03-06T02:48:08.319Z,973.9
2018-03-06T02:48:28.676Z,974
2018-03-06T02:48:49.035Z,973.9
2018-03-06T02:49:09.346Z,973.9
2018-03-06T02:49:29.690Z,974
2018-03-06T02:49:50.069Z,973.9
2018-03-06T02:50:10.408Z,973.9
2018-03-06T02:50:30.778Z,973.9
2018-03-06T02:50:51.206Z,973.9
2018-03-06T02:51:11.512Z,973.9
2018-03-06T02:51:31.932Z,973.9
2018-03-06T02:51:52.958Z,973.9
2018-03-06T02:52:13.317Z,973.8
2018-03-06T02:52:33.627Z,973.9
2018-03-06T02:52:53.931Z,973.8
2018-03-06T02:53:14.317Z,973.9
2018-03-06T02:53:34.639Z,973.9
2018-03-06T02:53:54.973Z,973.8
2018-03-06T02:54:15.292Z,973.8
2018-03-06T02:54:35.605Z,973.8
2018-03-06T02:54:56.024Z,973.8
2018-03-06T02:55:16.360Z,973.8
2018-03-06T02:55:36.811Z,973.8
2018-03-06T02:55:57.228Z,973.8
2018-03-06T02:56:17.540Z,973.8
2018-03-06T02:56:37.877Z,973.8
2018-03-06T02:56:58.235Z,973.8
2018-03-06T02:57:18.602Z,973.8
2018-03-06T02:57:39.000Z,973.8
2018-03-06T02:57:59.286Z,973.8
2018-03-06T02:58:19.609Z,973.8
2018-03-06T02:58:39.986Z,973.8
2018-03-06T02:59:00.264Z,973.9
2018-03-06T02:59:20.626Z,973.8
2018-03-06T02:59:40.964Z,973.8
2018-03-06T03:00:01.317Z,973.8
2018-03-06T03:00:21.642Z,973.8
2018-03-06T03:00:41.943Z,973.8
2018-03-06T03:01:02.295Z,973.8
2018-03-06T03:01:22.672Z,973.8
2018-03-06T03:01:44.912Z,973.8
2018-03-06T03:02:05.155Z,973.8
2018-03-06T03:02:25.436Z,973.8
2018-03-06T03:02:45.826Z,973.8
2018-03-06T03:03:06.204Z,973.8
2018-03-06T03:03:26.525Z,973.8
2018-03-06T03:03:46.873Z,973.8
2018-03-06T03:04:07.205Z,973.8
2018-03-06T03:04:27.537Z,973.8
2018-03-06T03:04:47.888Z,973.8
2018-03-06T03:05:08.259Z,973.8
2018-03-06T03:05:28.805Z,973.8
2018-03-06T03:05:49.202Z,973.8
2018-03-06T03:06:09.504Z,973.8
2018-03-06T03:06:29.919Z,973.8
2018-03-06T03:06:50.280Z,973.8
2018-03-06T03:07:10.606Z,973.8
2018-03-06T03:07:30.890Z,973.8
2018-03-06T03:07:51.211Z,973.8
2018-03-06T03:08:11.567Z,973.8
2018-03-06T03:08:31.949Z,973.8
2018-03-06T03:08:52.241Z,973.8
2018-03-06T03:09:12.607Z,973.7
2018-03-06T03:09:32.965Z,973.8
2018-03-06T03:09:53.280Z,973.8
2018-03-06T03:10:13.607Z,973.7
2018-03-06T03:10:33.962Z,973.7
2018-03-06T03:10:54.313Z,973.8
2018-03-06T03:11:14.685Z,973.7
2018-03-06T03:11:34.988Z,973.7
2018-03-06T03:11:55.317Z,973.8
2018-03-06T03:12:15.667Z,973.7
2018-03-06T03:12:35.991Z,973.7
2018-03-06T03:12:56.309Z,973.8
2018-03-06T03:13:16.678Z,973.7
2018-03-06T03:13:36.962Z,973.7
2018-03-06T03:13:58.312Z,973.7
2018-03-06T03:14:18.638Z,973.8
2018-03-06T03:14:39.001Z,973.8
2018-03-06T03:14:59.320Z,973.8
2018-03-06T03:15:19.673Z,973.7
2018-03-06T03:15:40.051Z,973.7
2018-03-06T03:16:00.421Z,973.8
2018-03-06T03:16:20.779Z,973.7
2018-03-06T03:16:41.103Z,973.7
2018-03-06T03:17:01.480Z,973.7
2018-03-06T03:17:21.868Z,973.7
2018-03-06T03:17:42.197Z,973.7
2018-03-06T03:18:03.639Z,973.7
2018-03-06T03:18:24.037Z,973.7
2018-03-06T03:18:44.392Z,973.7
2018-03-06T03:19:05.433Z,973.6
2018-03-06T03:19:25.739Z,973.7
2018-03-06T03:19:46.200Z,973.7
2018-03-06T03:20:06.511Z,973.7
2018-03-06T03:20:26.866Z,973.6
2018-03-06T03:20:47.217Z,973.6
2018-03-06T03:21:07.518Z,973.6
2018-03-06T03:21:27.968Z,973.7
2018-03-06T03:21:48.312Z,973.6
2018-03-06T03:22:09.452Z,973.6
2018-03-06T03:22:29.800Z,973.6
2018-03-06T03:22:50.065Z,973.6
2018-03-06T03:23:10.408Z,973.6
2018-03-06T03:23:30.751Z,973.6
2018-03-06T03:23:51.204Z,973.7
2018-03-06T03:24:11.629Z,973.6
2018-03-06T03:24:31.984Z,973.6
2018-03-06T03:24:52.349Z,973.7
2018-03-06T03:25:12.664Z,973.6
2018-03-06T03:25:33.101Z,973.6
2018-03-06T03:25:53.504Z,973.7
2018-03-06T03:26:13.914Z,973.7
2018-03-06T03:26:35.158Z,973.7
2018-03-06T03:26:55.542Z,973.6
2018-03-06T03:27:15.924Z,973.6
2018-03-06T03:27:36.265Z,973.6
2018-03-06T03:27:56.655Z,973.6
2018-03-06T03:28:17.100Z,973.6
2018-03-06T03:28:37.694Z,973.6
2018-03-06T03:28:59.142Z,973.6
2018-03-06T03:29:19.552Z,973.6
2018-03-06T03:29:39.952Z,973.6
2018-03-06T03:30:00.309Z,973.6
2018-03-06T03:30:20.785Z,973.6
2018-03-06T03:30:41.078Z,973.6
2018-03-06T03:31:01.436Z,973.6
2018-03-06T03:31:21.736Z,973.6
2018-03-06T03:31:42.123Z,973.6
2018-03-06T03:32:02.431Z,973.6
2018-03-06T03:32:22.710Z,973.6
2018-03-06T03:32:43.035Z,973.6
2018-03-06T03:33:03.351Z,973.6
2018-03-06T03:33:23.693Z,973.6
2018-03-06T03:33:44.004Z,973.6
2018-03-06T03:34:04.363Z,973.6
2018-03-06T03:34:24.783Z,973.6
2018-03-06T03:34:45.136Z,973.6
2018-03-06T03:35:05.507Z,973.6
2018-03-06T03:35:25.842Z,973.6
2018-03-06T03:35:46.196Z,973.5
2018-03-06T03:36:06.596Z,973.5
2018-03-06T03:36:26.974Z,973.6
2018-03-06T03:36:47.334Z,973.5
2018-03-06T03:37:07.701Z,973.5
2018-03-06T03:37:28.065Z,973.5
2018-03-06T03:37:49.128Z,973.6
2018-03-06T03:38:09.539Z,973.6
2018-03-06T03:38:29.937Z,973.6
2018-03-06T03:38:50.332Z,973.6
2018-03-06T03:39:10.729Z,973.6
2018-03-06T03:39:31.035Z,973.5
2018-03-06T03:39:51.388Z,973.5
2018-03-06T03:40:11.723Z,973.5
2018-03-06T03:40:32.292Z,973.5
2018-03-06T03:40:52.608Z,973.5
2018-03-06T03:41:12.882Z,973.5
2018-03-06T03:41:33.254Z,973.5
2018-03-06T03:41:53.569Z,973.5
2018-03-06T03:42:13.930Z,973.5
2018-03-06T03:42:34.259Z,973.5
2018-03-06T03:42:54.587Z,973.5
2018-03-06T03:43:14.912Z,973.5
2018-03-06T03:43:35.138Z,973.5
2018-03-06T03:43:55.468Z,973.5
2018-03-06T03:44:15.794Z,973.5
2018-03-06T03:44:36.106Z,973.5
2018-03-06T03:44:56.429Z,973.5
2018-03-06T03:45:16.743Z,973.5
2018-03-06T03:45:37.119Z,973.5
2018-03-06T03:45:57.382Z,973.4
2018-03-06T03:46:17.708Z,973.5
2018-03-06T03:46:38.645Z,973.4
2018-03-06T03:46:59.091Z,973.4
2018-03-06T03:47:19.413Z,973.4
2018-03-06T03:47:39.721Z,973.4
2018-03-06T03:48:00.068Z,973.4
2018-03-06T03:48:20.421Z,973.4
2018-03-06T03:48:40.797Z,973.4
2018-03-06T03:49:01.133Z,973.4
2018-03-06T03:49:21.458Z,973.4
2018-03-06T03:49:41.826Z,973.4
2018-03-06T03:50:02.121Z,973.4
2018-03-06T03:50:22.432Z,973.4
2018-03-06T03:50:42.877Z,973.4
2018-03-06T03:51:03.232Z,973.4
2018-03-06T03:51:23.607Z,973.4
2018-03-06T03:51:43.906Z,973.4
2018-03-06T03:52:04.367Z,973.4
2018-03-06T03:52:24.712Z,973.4
2018-03-06T03:52:45.031Z,973.4
2018-03-06T03:53:05.341Z,973.4
2018-03-06T03:53:25.687Z,973.4
2018-03-06T03:53:46.939Z,973.4
2018-03-06T03:54:07.266Z,973.4
2018-03-06T03:54:27.686Z,973.3
2018-03-06T03:54:48.026Z,973.4
2018-03-06T03:55:08.337Z,973.3
2018-03-06T03:55:28.741Z,973.4
2018-03-06T03:55:49.154Z,973.3
2018-03-06T03:56:09.496Z,973.4
2018-03-06T03:56:29.848Z,973.3
2018-03-06T03:56:51.160Z,973.4
2018-03-06T03:57:11.468Z,973.4
2018-03-06T03:57:31.811Z,973.4
2018-03-06T03:57:52.114Z,973.4
2018-03-06T03:58:14.375Z,973.3
2018-03-06T03:58:34.791Z,973.3
2018-03-06T03:58:55.058Z,973.3
2018-03-06T03:59:15.441Z,973.3
2018-03-06T03:59:35.837Z,973.3
2018-03-06T03:59:56.203Z,973.4
2018-03-06T04:00:16.562Z,973.3
2018-03-06T04:00:36.914Z,973.3
2018-03-06T04:00:57.307Z,973.4
2018-03-06T04:01:17.735Z,973.3
2018-03-06T04:01:38.162Z,973.3
2018-03-06T04:01:58.542Z,973.3
2018-03-06T04:02:18.938Z,973.3
2018-03-06T04:02:39.309Z,973.3
2018-03-06T04:02:59.631Z,973.3
2018-03-06T04:03:20.023Z,973.3
2018-03-06T04:03:40.432Z,973.3
2018-03-06T04:04:00.772Z,973.3
2018-03-06T04:04:21.173Z,973.3
2018-03-06T04:04:41.622Z,973.3
2018-03-06T04:05:01.993Z,973.3
2018-03-06T04:05:22.373Z,973.3
2018-03-06T04:05:43.698Z,973.3
2018-03-06T04:06:05.102Z,973.3
2018-03-06T04:06:25.501Z,973.3
2018-03-06T04:06:45.860Z,973.3
2018-03-06T04:07:06.006Z,973.3
2018-03-06T04:07:26.411Z,973.3
2018-03-06T04:07:46.857Z,973.4
2018-03-06T04:08:07.271Z,973.4
2018-03-06T04:08:27.740Z,973.3
2018-03-06T04:08:48.994Z,973.3
2018-03-06T04:09:09.374Z,973.3
2018-03-06T04:09:29.777Z,973.4
2018-03-06T04:09:50.207Z,973.4
2018-03-06T04:10:10.671Z,973.3
2018-03-06T04:10:31.061Z,973.3
2018-03-06T04:10:51.392Z,973.3
2018-03-06T04:11:11.701Z,973.3
2018-03-06T04:11:32.005Z,973.3
2018-03-06T04:11:52.381Z,973.3
2018-03-06T04:12:12.816Z,973.3
2018-03-06T04:12:33.305Z,973.3
2018-03-06T04:12:53.642Z,973.3
2018-03-06T04:13:14.171Z,973.3
2018-03-06T04:13:34.612Z,973.3
2018-03-06T04:13:55.124Z,973.3
2018-03-06T04:14:15.554Z,973.3
2018-03-06T04:14:36.846Z,973.3
2018-03-06T04:14:57.363Z,973.3
2018-03-06T04:15:17.742Z,973.3
2018-03-06T04:15:38.175Z,973.3
2018-03-06T04:15:58.532Z,973.3
2018-03-06T04:16:18.985Z,973.3
2018-03-06T04:16:39.420Z,973.3
2018-03-06T04:16:59.772Z,973.3
2018-03-06T04:17:20.222Z,973.3
2018-03-06T04:17:40.592Z,973.3
2018-03-06T04:18:00.913Z,973.3
2018-03-06T04:18:21.264Z,973.3
2018-03-06T04:18:44.252Z,973.3
2018-03-06T04:19:04.637Z,973.3
2018-03-06T04:19:25.042Z,973.3
2018-03-06T04:19:45.445Z,973.3
2018-03-06T04:20:05.857Z,973.3
2018-03-06T04:20:27.080Z,973.3
2018-03-06T04:20:47.463Z,973.3
2018-03-06T04:21:07.867Z,973.3
2018-03-06T04:21:30.641Z,973.3
2018-03-06T04:21:53.825Z,973.3
2018-03-06T04:22:14.805Z,973.2
2018-03-06T04:22:35.227Z,973.3
2018-03-06T04:22:56.509Z,973.2
2018-03-06T04:23:16.844Z,973.2
2018-03-06T04:23:37.200Z,973.3
2018-03-06T04:23:57.535Z,973.2
2018-03-06T04:24:17.836Z,973.2